sensor_id;sensor_type;location;lat;lon;timestamp;P1;durP1;ratioP1;P2;durP2;ratioP2
55190;SDS011;41070;50.360;18.742;2022-08-23T00:01:18;4.90;;;3.50;;
55190;SDS011;41070;50.360;18.742;2022-08-23T00:03:48;4.20;;;3.30;;
55190;SDS011;41070;50.360;18.742;2022-08-23T00:06:17;3.70;;;3.40;;
55190;SDS011;41070;50.360;18.742;2022-08-23T00:08:48;4.30;;;2.90;;
55190;SDS011;41070;50.360;18.742;2022-08-23T00:14:08;3.50;;;2.80;;
55190;SDS011;41070;50.360;18.742;2022-08-23T00:16:41;4.10;;;3.00;;
55190;SDS011;41070;50.360;18.742;2022-08-23T00:19:10;6.20;;;3.10;;
55190;SDS011;41070;50.360;18.742;2022-08-23T00:21:40;4.90;;;2.80;;
55190;SDS011;41070;50.360;18.742;2022-08-23T00:24:08;4.10;;;3.00;;
55190;SDS011;41070;50.360;18.742;2022-08-23T00:26:54;4.20;;;3.40;;
55190;SDS011;41070;50.360;18.742;2022-08-23T00:29:37;4.90;;;3.30;;
55190;SDS011;41070;50.360;18.742;2022-08-23T00:32:16;4.30;;;3.40;;
55190;SDS011;41070;50.360;18.742;2022-08-23T00:34:46;4.90;;;3.30;;
55190;SDS011;41070;50.360;18.742;2022-08-23T00:37:14;4.90;;;3.40;;
55190;SDS011;41070;50.360;18.742;2022-08-23T00:39:42;4.60;;;3.60;;
55190;SDS011;41070;50.360;18.742;2022-08-23T00:44:59;4.20;;;3.40;;
55190;SDS011;41070;50.360;18.742;2022-08-23T00:47:49;4.80;;;3.80;;
55190;SDS011;41070;50.360;18.742;2022-08-23T00:55:29;7.00;;;3.90;;
55190;SDS011;41070;50.360;18.742;2022-08-23T00:57:57;6.70;;;3.80;;
55190;SDS011;41070;50.360;18.742;2022-08-23T01:00:26;5.30;;;3.90;;
55190;SDS011;41070;50.360;18.742;2022-08-23T01:02:54;5.90;;;3.90;;
55190;SDS011;41070;50.360;18.742;2022-08-23T01:05:23;4.20;;;3.70;;
55190;SDS011;41070;50.360;18.742;2022-08-23T01:07:57;4.30;;;3.60;;
55190;SDS011;41070;50.360;18.742;2022-08-23T01:10:42;5.80;;;3.40;;
55190;SDS011;41070;50.360;18.742;2022-08-23T01:13:17;5.50;;;3.30;;
55190;SDS011;41070;50.360;18.742;2022-08-23T01:15:51;3.70;;;3.30;;
55190;SDS011;41070;50.360;18.742;2022-08-23T01:18:24;5.30;;;3.80;;
55190;SDS011;41070;50.360;18.742;2022-08-23T01:21:02;5.30;;;3.90;;
55190;SDS011;41070;50.360;18.742;2022-08-23T01:23:46;3.90;;;3.50;;
55190;SDS011;41070;50.360;18.742;2022-08-23T01:26:18;5.60;;;3.60;;
55190;SDS011;41070;50.360;18.742;2022-08-23T01:28:48;4.10;;;3.20;;
55190;SDS011;41070;50.360;18.742;2022-08-23T01:31:16;4.40;;;3.40;;
55190;SDS011;41070;50.360;18.742;2022-08-23T01:33:45;5.00;;;3.50;;
55190;SDS011;41070;50.360;18.742;2022-08-23T01:36:20;7.60;;;4.40;;
55190;SDS011;41070;50.360;18.742;2022-08-23T01:38:48;5.10;;;3.60;;
55190;SDS011;41070;50.360;18.742;2022-08-23T01:41:15;6.20;;;3.80;;
55190;SDS011;41070;50.360;18.742;2022-08-23T01:43:43;4.10;;;3.40;;
55190;SDS011;41070;50.360;18.742;2022-08-23T01:46:13;3.30;;;3.00;;
55190;SDS011;41070;50.360;18.742;2022-08-23T01:48:44;4.10;;;3.60;;
55190;SDS011;41070;50.360;18.742;2022-08-23T01:51:14;5.30;;;3.60;;
55190;SDS011;41070;50.360;18.742;2022-08-23T01:53:44;4.30;;;3.20;;
55190;SDS011;41070;50.360;18.742;2022-08-23T01:56:13;4.40;;;3.80;;
55190;SDS011;41070;50.360;18.742;2022-08-23T01:58:45;5.70;;;4.10;;
55190;SDS011;41070;50.360;18.742;2022-08-23T02:01:13;5.00;;;3.80;;
55190;SDS011;41070;50.360;18.742;2022-08-23T02:03:42;5.00;;;4.20;;
55190;SDS011;41070;50.360;18.742;2022-08-23T02:06:09;4.90;;;4.40;;
55190;SDS011;41070;50.360;18.742;2022-08-23T02:08:37;5.30;;;4.20;;
55190;SDS011;41070;50.360;18.742;2022-08-23T02:11:23;8.30;;;5.90;;
55190;SDS011;41070;50.360;18.742;2022-08-23T02:13:52;6.70;;;4.90;;
55190;SDS011;41070;50.360;18.742;2022-08-23T02:16:25;9.10;;;5.90;;
55190;SDS011;41070;50.360;18.742;2022-08-23T02:18:59;6.70;;;4.40;;
55190;SDS011;41070;50.360;18.742;2022-08-23T02:21:28;7.40;;;5.20;;
55190;SDS011;41070;50.360;18.742;2022-08-23T02:23:58;6.70;;;5.40;;
55190;SDS011;41070;50.360;18.742;2022-08-23T02:26:26;8.20;;;5.80;;
55190;SDS011;41070;50.360;18.742;2022-08-23T02:28:53;9.60;;;5.50;;
55190;SDS011;41070;50.360;18.742;2022-08-23T02:31:21;6.70;;;4.80;;
55190;SDS011;41070;50.360;18.742;2022-08-23T02:33:49;6.60;;;5.00;;
55190;SDS011;41070;50.360;18.742;2022-08-23T02:36:16;7.20;;;5.40;;
55190;SDS011;41070;50.360;18.742;2022-08-23T02:38:44;6.30;;;5.10;;
55190;SDS011;41070;50.360;18.742;2022-08-23T02:41:11;6.10;;;5.10;;
55190;SDS011;41070;50.360;18.742;2022-08-23T02:43:39;9.40;;;5.70;;
55190;SDS011;41070;50.360;18.742;2022-08-23T02:46:06;11.00;;;7.00;;
55190;SDS011;41070;50.360;18.742;2022-08-23T02:48:34;9.90;;;6.70;;
55190;SDS011;41070;50.360;18.742;2022-08-23T02:51:04;9.40;;;5.70;;
55190;SDS011;41070;50.360;18.742;2022-08-23T02:53:33;8.90;;;6.40;;
55190;SDS011;41070;50.360;18.742;2022-08-23T02:56:01;8.10;;;5.70;;
55190;SDS011;41070;50.360;18.742;2022-08-23T02:58:29;7.40;;;6.30;;
55190;SDS011;41070;50.360;18.742;2022-08-23T03:00:57;8.20;;;5.60;;
55190;SDS011;41070;50.360;18.742;2022-08-23T03:03:24;8.70;;;5.80;;
55190;SDS011;41070;50.360;18.742;2022-08-23T03:05:52;7.40;;;5.60;;
55190;SDS011;41070;50.360;18.742;2022-08-23T03:08:20;6.50;;;5.00;;
55190;SDS011;41070;50.360;18.742;2022-08-23T03:10:49;8.90;;;5.10;;
55190;SDS011;41070;50.360;18.742;2022-08-23T03:13:18;8.10;;;6.10;;
55190;SDS011;41070;50.360;18.742;2022-08-23T03:15:46;7.30;;;5.60;;
55190;SDS011;41070;50.360;18.742;2022-08-23T03:18:14;8.10;;;5.80;;
55190;SDS011;41070;50.360;18.742;2022-08-23T03:20:42;7.00;;;5.50;;
55190;SDS011;41070;50.360;18.742;2022-08-23T03:23:10;7.30;;;5.30;;
55190;SDS011;41070;50.360;18.742;2022-08-23T03:25:38;8.20;;;6.10;;
55190;SDS011;41070;50.360;18.742;2022-08-23T03:28:06;10.40;;;5.70;;
55190;SDS011;41070;50.360;18.742;2022-08-23T03:30:44;7.60;;;6.20;;
55190;SDS011;41070;50.360;18.742;2022-08-23T03:33:12;8.30;;;5.30;;
55190;SDS011;41070;50.360;18.742;2022-08-23T03:35:40;7.10;;;5.10;;
55190;SDS011;41070;50.360;18.742;2022-08-23T03:38:08;6.20;;;5.20;;
55190;SDS011;41070;50.360;18.742;2022-08-23T03:40:36;10.60;;;6.00;;
55190;SDS011;41070;50.360;18.742;2022-08-23T03:43:04;7.60;;;5.60;;
55190;SDS011;41070;50.360;18.742;2022-08-23T03:45:32;14.50;;;7.00;;
55190;SDS011;41070;50.360;18.742;2022-08-23T03:47:59;11.90;;;6.60;;
55190;SDS011;41070;50.360;18.742;2022-08-23T03:50:27;7.90;;;5.80;;
55190;SDS011;41070;50.360;18.742;2022-08-23T03:52:55;8.40;;;5.70;;
55190;SDS011;41070;50.360;18.742;2022-08-23T03:55:22;10.70;;;6.00;;
55190;SDS011;41070;50.360;18.742;2022-08-23T03:57:50;7.70;;;5.30;;
55190;SDS011;41070;50.360;18.742;2022-08-23T04:00:17;6.90;;;5.10;;
55190;SDS011;41070;50.360;18.742;2022-08-23T04:02:45;10.10;;;5.90;;
55190;SDS011;41070;50.360;18.742;2022-08-23T04:05:12;7.30;;;4.70;;
55190;SDS011;41070;50.360;18.742;2022-08-23T04:07:40;6.50;;;4.70;;
55190;SDS011;41070;50.360;18.742;2022-08-23T04:10:08;6.80;;;4.60;;
55190;SDS011;41070;50.360;18.742;2022-08-23T04:12:40;7.70;;;5.00;;
55190;SDS011;41070;50.360;18.742;2022-08-23T04:15:09;10.60;;;5.70;;
55190;SDS011;41070;50.360;18.742;2022-08-23T04:17:36;8.90;;;5.30;;
55190;SDS011;41070;50.360;18.742;2022-08-23T04:20:04;5.60;;;4.30;;
55190;SDS011;41070;50.360;18.742;2022-08-23T04:22:33;6.80;;;4.80;;
55190;SDS011;41070;50.360;18.742;2022-08-23T04:25:00;8.20;;;5.10;;
55190;SDS011;41070;50.360;18.742;2022-08-23T04:27:28;9.10;;;5.00;;
55190;SDS011;41070;50.360;18.742;2022-08-23T04:29:56;7.30;;;4.30;;
55190;SDS011;41070;50.360;18.742;2022-08-23T04:32:24;6.80;;;4.10;;
55190;SDS011;41070;50.360;18.742;2022-08-23T04:34:52;5.50;;;3.80;;
55190;SDS011;41070;50.360;18.742;2022-08-23T04:37:20;5.80;;;4.80;;
55190;SDS011;41070;50.360;18.742;2022-08-23T04:39:48;4.70;;;4.00;;
55190;SDS011;41070;50.360;18.742;2022-08-23T04:42:33;4.30;;;3.60;;
55190;SDS011;41070;50.360;18.742;2022-08-23T04:45:01;4.80;;;4.00;;
55190;SDS011;41070;50.360;18.742;2022-08-23T04:47:28;7.00;;;4.70;;
55190;SDS011;41070;50.360;18.742;2022-08-23T04:49:56;7.60;;;4.90;;
55190;SDS011;41070;50.360;18.742;2022-08-23T04:52:23;8.60;;;5.10;;
55190;SDS011;41070;50.360;18.742;2022-08-23T04:54:51;7.20;;;4.60;;
55190;SDS011;41070;50.360;18.742;2022-08-23T04:57:18;7.90;;;4.70;;
55190;SDS011;41070;50.360;18.742;2022-08-23T04:59:46;6.20;;;4.80;;
55190;SDS011;41070;50.360;18.742;2022-08-23T05:02:13;6.80;;;5.10;;
55190;SDS011;41070;50.360;18.742;2022-08-23T05:04:41;6.40;;;4.80;;
55190;SDS011;41070;50.360;18.742;2022-08-23T05:07:09;5.50;;;4.90;;
55190;SDS011;41070;50.360;18.742;2022-08-23T05:09:37;5.30;;;4.70;;
55190;SDS011;41070;50.360;18.742;2022-08-23T05:12:04;9.50;;;6.00;;
55190;SDS011;41070;50.360;18.742;2022-08-23T05:14:32;6.00;;;4.60;;
55190;SDS011;41070;50.360;18.742;2022-08-23T05:17:00;7.30;;;5.30;;
55190;SDS011;41070;50.360;18.742;2022-08-23T05:19:28;11.00;;;5.90;;
55190;SDS011;41070;50.360;18.742;2022-08-23T05:21:55;8.40;;;5.40;;
55190;SDS011;41070;50.360;18.742;2022-08-23T05:24:23;9.10;;;5.70;;
55190;SDS011;41070;50.360;18.742;2022-08-23T05:26:50;10.10;;;6.40;;
55190;SDS011;41070;50.360;18.742;2022-08-23T05:29:18;11.40;;;6.80;;
55190;SDS011;41070;50.360;18.742;2022-08-23T05:31:46;14.00;;;7.00;;
55190;SDS011;41070;50.360;18.742;2022-08-23T05:34:14;15.40;;;7.70;;
55190;SDS011;41070;50.360;18.742;2022-08-23T05:36:41;14.60;;;8.40;;
55190;SDS011;41070;50.360;18.742;2022-08-23T05:39:09;13.60;;;7.50;;
55190;SDS011;41070;50.360;18.742;2022-08-23T05:41:37;12.90;;;7.40;;
55190;SDS011;41070;50.360;18.742;2022-08-23T05:44:05;13.50;;;7.40;;
55190;SDS011;41070;50.360;18.742;2022-08-23T05:46:32;15.50;;;8.20;;
55190;SDS011;41070;50.360;18.742;2022-08-23T05:49:00;10.20;;;7.30;;
55190;SDS011;41070;50.360;18.742;2022-08-23T05:51:29;18.00;;;7.90;;
55190;SDS011;41070;50.360;18.742;2022-08-23T05:53:59;15.20;;;8.80;;
55190;SDS011;41070;50.360;18.742;2022-08-23T05:56:31;15.40;;;8.10;;
55190;SDS011;41070;50.360;18.742;2022-08-23T05:59:02;20.30;;;8.80;;
55190;SDS011;41070;50.360;18.742;2022-08-23T06:01:34;17.00;;;9.10;;
55190;SDS011;41070;50.360;18.742;2022-08-23T06:04:04;17.70;;;9.10;;
55190;SDS011;41070;50.360;18.742;2022-08-23T06:06:33;22.90;;;10.50;;
55190;SDS011;41070;50.360;18.742;2022-08-23T06:09:02;20.10;;;10.30;;
55190;SDS011;41070;50.360;18.742;2022-08-23T06:11:31;19.10;;;9.00;;
55190;SDS011;41070;50.360;18.742;2022-08-23T06:14:00;19.00;;;8.80;;
55190;SDS011;41070;50.360;18.742;2022-08-23T06:16:34;24.70;;;11.40;;
55190;SDS011;41070;50.360;18.742;2022-08-23T06:19:05;21.50;;;10.10;;
55190;SDS011;41070;50.360;18.742;2022-08-23T06:21:34;23.00;;;11.00;;
55190;SDS011;41070;50.360;18.742;2022-08-23T06:24:02;23.20;;;10.90;;
55190;SDS011;41070;50.360;18.742;2022-08-23T06:26:38;19.20;;;9.10;;
55190;SDS011;41070;50.360;18.742;2022-08-23T06:29:11;22.40;;;11.70;;
55190;SDS011;41070;50.360;18.742;2022-08-23T06:31:42;67.70;;;41.50;;
55190;SDS011;41070;50.360;18.742;2022-08-23T06:34:22;27.30;;;13.40;;
55190;SDS011;41070;50.360;18.742;2022-08-23T06:36:59;22.10;;;11.60;;
55190;SDS011;41070;50.360;18.742;2022-08-23T06:39:30;27.80;;;12.80;;
55190;SDS011;41070;50.360;18.742;2022-08-23T06:42:01;24.50;;;12.00;;
55190;SDS011;41070;50.360;18.742;2022-08-23T06:44:32;22.90;;;11.20;;
55190;SDS011;41070;50.360;18.742;2022-08-23T06:47:01;21.00;;;11.00;;
55190;SDS011;41070;50.360;18.742;2022-08-23T06:49:30;21.90;;;10.40;;
55190;SDS011;41070;50.360;18.742;2022-08-23T06:51:58;15.60;;;9.30;;
55190;SDS011;41070;50.360;18.742;2022-08-23T06:54:30;17.70;;;9.10;;
55190;SDS011;41070;50.360;18.742;2022-08-23T06:56:59;17.00;;;10.80;;
55190;SDS011;41070;50.360;18.742;2022-08-23T06:59:28;19.50;;;10.40;;
55190;SDS011;41070;50.360;18.742;2022-08-23T07:02:01;21.50;;;11.40;;
55190;SDS011;41070;50.360;18.742;2022-08-23T07:04:36;18.50;;;10.20;;
55190;SDS011;41070;50.360;18.742;2022-08-23T07:07:06;17.90;;;10.30;;
55190;SDS011;41070;50.360;18.742;2022-08-23T07:09:35;19.00;;;11.40;;
55190;SDS011;41070;50.360;18.742;2022-08-23T07:12:03;18.70;;;10.90;;
55190;SDS011;41070;50.360;18.742;2022-08-23T07:14:31;16.20;;;10.10;;
55190;SDS011;41070;50.360;18.742;2022-08-23T07:16:59;19.40;;;11.50;;
55190;SDS011;41070;50.360;18.742;2022-08-23T07:19:29;20.40;;;11.00;;
55190;SDS011;41070;50.360;18.742;2022-08-23T07:22:00;21.60;;;12.30;;
55190;SDS011;41070;50.360;18.742;2022-08-23T07:24:29;19.00;;;10.80;;
55190;SDS011;41070;50.360;18.742;2022-08-23T07:27:08;20.10;;;12.70;;
55190;SDS011;41070;50.360;18.742;2022-08-23T07:29:48;19.10;;;10.90;;
55190;SDS011;41070;50.360;18.742;2022-08-23T07:32:23;18.20;;;10.40;;
55190;SDS011;41070;50.360;18.742;2022-08-23T07:35:26;19.30;;;11.50;;
55190;SDS011;41070;50.360;18.742;2022-08-23T07:37:59;18.10;;;10.60;;
55190;SDS011;41070;50.360;18.742;2022-08-23T07:40:29;20.40;;;13.00;;
55190;SDS011;41070;50.360;18.742;2022-08-23T07:43:08;22.40;;;13.80;;
55190;SDS011;41070;50.360;18.742;2022-08-23T07:45:48;22.30;;;12.80;;
55190;SDS011;41070;50.360;18.742;2022-08-23T07:48:25;21.20;;;12.60;;
55190;SDS011;41070;50.360;18.742;2022-08-23T07:51:06;22.90;;;13.30;;
55190;SDS011;41070;50.360;18.742;2022-08-23T07:53:39;24.80;;;13.70;;
55190;SDS011;41070;50.360;18.742;2022-08-23T07:56:11;24.30;;;14.10;;
55190;SDS011;41070;50.360;18.742;2022-08-23T07:58:41;23.30;;;15.00;;
55190;SDS011;41070;50.360;18.742;2022-08-23T08:01:10;25.30;;;13.60;;
55190;SDS011;41070;50.360;18.742;2022-08-23T08:03:44;23.50;;;13.50;;
55190;SDS011;41070;50.360;18.742;2022-08-23T08:06:14;20.20;;;11.50;;
55190;SDS011;41070;50.360;18.742;2022-08-23T08:08:44;17.80;;;10.90;;
55190;SDS011;41070;50.360;18.742;2022-08-23T08:11:14;20.40;;;12.20;;
55190;SDS011;41070;50.360;18.742;2022-08-23T08:13:46;20.00;;;11.90;;
55190;SDS011;41070;50.360;18.742;2022-08-23T08:16:26;19.50;;;12.20;;
55190;SDS011;41070;50.360;18.742;2022-08-23T08:19:00;22.00;;;14.30;;
55190;SDS011;41070;50.360;18.742;2022-08-23T08:21:30;24.80;;;14.30;;
55190;SDS011;41070;50.360;18.742;2022-08-23T08:23:58;29.20;;;16.60;;
55190;SDS011;41070;50.360;18.742;2022-08-23T08:26:25;27.20;;;17.10;;
55190;SDS011;41070;50.360;18.742;2022-08-23T08:28:54;32.70;;;19.50;;
55190;SDS011;41070;50.360;18.742;2022-08-23T08:31:23;30.60;;;18.50;;
55190;SDS011;41070;50.360;18.742;2022-08-23T08:33:53;31.00;;;19.20;;
55190;SDS011;41070;50.360;18.742;2022-08-23T08:36:28;32.20;;;19.40;;
55190;SDS011;41070;50.360;18.742;2022-08-23T08:39:03;37.10;;;20.20;;
55190;SDS011;41070;50.360;18.742;2022-08-23T08:41:42;32.10;;;19.40;;
55190;SDS011;41070;50.360;18.742;2022-08-23T08:47:10;32.10;;;19.70;;
55190;SDS011;41070;50.360;18.742;2022-08-23T08:49:56;33.30;;;18.50;;
55190;SDS011;41070;50.360;18.742;2022-08-23T08:52:34;36.20;;;20.80;;
55190;SDS011;41070;50.360;18.742;2022-08-23T08:55:13;30.10;;;19.60;;
55190;SDS011;41070;50.360;18.742;2022-08-23T08:57:47;37.50;;;21.50;;
55190;SDS011;41070;50.360;18.742;2022-08-23T09:00:17;34.90;;;21.30;;
55190;SDS011;41070;50.360;18.742;2022-08-23T09:02:47;38.20;;;20.70;;
55190;SDS011;41070;50.360;18.742;2022-08-23T09:05:25;33.70;;;19.30;;
55190;SDS011;41070;50.360;18.742;2022-08-23T09:08:03;29.90;;;17.30;;
55190;SDS011;41070;50.360;18.742;2022-08-23T09:17:09;29.40;;;17.70;;
55190;SDS011;41070;50.360;18.742;2022-08-23T09:19:32;30.80;;;18.70;;
55190;SDS011;41070;50.360;18.742;2022-08-23T09:22:04;29.60;;;18.20;;
55190;SDS011;41070;50.360;18.742;2022-08-23T09:24:39;26.80;;;17.70;;
55190;SDS011;41070;50.360;18.742;2022-08-23T09:27:09;33.30;;;18.90;;
55190;SDS011;41070;50.360;18.742;2022-08-23T09:29:38;29.20;;;18.20;;
55190;SDS011;41070;50.360;18.742;2022-08-23T09:32:36;32.60;;;19.30;;
55190;SDS011;41070;50.360;18.742;2022-08-23T09:35:13;27.60;;;18.60;;
55190;SDS011;41070;50.360;18.742;2022-08-23T09:37:52;28.80;;;17.80;;
55190;SDS011;41070;50.360;18.742;2022-08-23T09:43:01;24.80;;;16.50;;
55190;SDS011;41070;50.360;18.742;2022-08-23T09:45:33;25.40;;;16.50;;
55190;SDS011;41070;50.360;18.742;2022-08-23T09:48:03;26.70;;;16.30;;
55190;SDS011;41070;50.360;18.742;2022-08-23T09:50:37;24.40;;;15.40;;
55190;SDS011;41070;50.360;18.742;2022-08-23T09:53:08;26.30;;;17.40;;
55190;SDS011;41070;50.360;18.742;2022-08-23T09:55:39;26.10;;;16.10;;
55190;SDS011;41070;50.360;18.742;2022-08-23T10:03:43;26.40;;;17.00;;
55190;SDS011;41070;50.360;18.742;2022-08-23T10:06:12;22.70;;;14.30;;
55190;SDS011;41070;50.360;18.742;2022-08-23T10:08:55;29.30;;;17.40;;
55190;SDS011;41070;50.360;18.742;2022-08-23T10:11:40;24.70;;;16.30;;
55190;SDS011;41070;50.360;18.742;2022-08-23T10:14:15;25.00;;;15.70;;
55190;SDS011;41070;50.360;18.742;2022-08-23T10:19:52;26.10;;;16.00;;
55190;SDS011;41070;50.360;18.742;2022-08-23T10:22:35;25.20;;;14.80;;
55190;SDS011;41070;50.360;18.742;2022-08-23T10:25:25;25.70;;;15.60;;
55190;SDS011;41070;50.360;18.742;2022-08-23T10:28:10;25.80;;;15.60;;
55190;SDS011;41070;50.360;18.742;2022-08-23T10:39:35;28.00;;;18.10;;
55190;SDS011;41070;50.360;18.742;2022-08-23T10:42:23;23.30;;;15.50;;
55190;SDS011;41070;50.360;18.742;2022-08-23T10:50:51;24.60;;;16.50;;
55190;SDS011;41070;50.360;18.742;2022-08-23T10:56:04;26.00;;;16.60;;
55190;SDS011;41070;50.360;18.742;2022-08-23T10:58:52;25.30;;;17.20;;
55190;SDS011;41070;50.360;18.742;2022-08-23T11:01:39;25.70;;;17.30;;
55190;SDS011;41070;50.360;18.742;2022-08-23T11:04:33;27.80;;;17.00;;
55190;SDS011;41070;50.360;18.742;2022-08-23T11:07:17;24.50;;;16.40;;
55190;SDS011;41070;50.360;18.742;2022-08-23T11:10:14;26.00;;;17.60;;
55190;SDS011;41070;50.360;18.742;2022-08-23T11:13:17;25.80;;;16.30;;
55190;SDS011;41070;50.360;18.742;2022-08-23T11:15:56;26.20;;;17.50;;
55190;SDS011;41070;50.360;18.742;2022-08-23T11:23:51;26.10;;;18.50;;
55190;SDS011;41070;50.360;18.742;2022-08-23T11:31:43;26.60;;;17.20;;
55190;SDS011;41070;50.360;18.742;2022-08-23T11:34:23;27.90;;;18.80;;
55190;SDS011;41070;50.360;18.742;2022-08-23T11:40:06;28.30;;;19.10;;
55190;SDS011;41070;50.360;18.742;2022-08-23T11:48:03;25.90;;;18.20;;
55190;SDS011;41070;50.360;18.742;2022-08-23T12:01:29;27.80;;;19.00;;
55190;SDS011;41070;50.360;18.742;2022-08-23T12:04:00;27.30;;;19.50;;
55190;SDS011;41070;50.360;18.742;2022-08-23T12:09:11;27.10;;;18.20;;
55190;SDS011;41070;50.360;18.742;2022-08-23T12:17:03;24.70;;;17.10;;
55190;SDS011;41070;50.360;18.742;2022-08-23T12:19:44;23.20;;;16.20;;
55190;SDS011;41070;50.360;18.742;2022-08-23T12:25:33;23.70;;;17.10;;
55190;SDS011;41070;50.360;18.742;2022-08-23T12:31:15;25.10;;;17.50;;
55190;SDS011;41070;50.360;18.742;2022-08-23T12:37:19;20.30;;;15.30;;
55190;SDS011;41070;50.360;18.742;2022-08-23T12:40:13;20.10;;;15.80;;
55190;SDS011;41070;50.360;18.742;2022-08-23T12:43:24;22.90;;;17.20;;
55190;SDS011;41070;50.360;18.742;2022-08-23T12:46:22;21.30;;;15.50;;
55190;SDS011;41070;50.360;18.742;2022-08-23T12:49:31;22.20;;;15.50;;
55190;SDS011;41070;50.360;18.742;2022-08-23T12:52:40;22.20;;;16.20;;
55190;SDS011;41070;50.360;18.742;2022-08-23T12:55:51;22.20;;;16.80;;
55190;SDS011;41070;50.360;18.742;2022-08-23T12:58:30;20.80;;;15.20;;
55190;SDS011;41070;50.360;18.742;2022-08-23T13:01:37;18.40;;;14.80;;
55190;SDS011;41070;50.360;18.742;2022-08-23T13:04:21;17.60;;;14.30;;
55190;SDS011;41070;50.360;18.742;2022-08-23T13:07:00;20.40;;;13.70;;
55190;SDS011;41070;50.360;18.742;2022-08-23T13:09:46;18.40;;;13.30;;
55190;SDS011;41070;50.360;18.742;2022-08-23T13:12:25;17.60;;;13.60;;
55190;SDS011;41070;50.360;18.742;2022-08-23T13:15:12;17.50;;;13.20;;
55190;SDS011;41070;50.360;18.742;2022-08-23T13:17:57;20.30;;;14.10;;
55190;SDS011;41070;50.360;18.742;2022-08-23T13:20:30;17.40;;;14.00;;
55190;SDS011;41070;50.360;18.742;2022-08-23T13:23:06;19.40;;;15.10;;
55190;SDS011;41070;50.360;18.742;2022-08-23T13:25:52;20.10;;;16.00;;
55190;SDS011;41070;50.360;18.742;2022-08-23T13:28:27;20.40;;;14.70;;
55190;SDS011;41070;50.360;18.742;2022-08-23T13:31:14;22.60;;;15.40;;
55190;SDS011;41070;50.360;18.742;2022-08-23T13:33:51;19.90;;;15.30;;
55190;SDS011;41070;50.360;18.742;2022-08-23T13:36:22;20.90;;;14.60;;
55190;SDS011;41070;50.360;18.742;2022-08-23T13:39:09;20.30;;;15.60;;
55190;SDS011;41070;50.360;18.742;2022-08-23T13:42:06;18.80;;;15.20;;
55190;SDS011;41070;50.360;18.742;2022-08-23T13:44:37;19.90;;;13.80;;
55190;SDS011;41070;50.360;18.742;2022-08-23T13:47:17;20.50;;;15.50;;
55190;SDS011;41070;50.360;18.742;2022-08-23T13:50:24;18.20;;;15.00;;
55190;SDS011;41070;50.360;18.742;2022-08-23T13:52:58;16.90;;;14.00;;
55190;SDS011;41070;50.360;18.742;2022-08-23T13:55:38;17.60;;;14.20;;
55190;SDS011;41070;50.360;18.742;2022-08-23T13:58:11;16.80;;;12.70;;
55190;SDS011;41070;50.360;18.742;2022-08-23T14:04:43;19.90;;;15.00;;
55190;SDS011;41070;50.360;18.742;2022-08-23T14:07:19;21.50;;;15.30;;
55190;SDS011;41070;50.360;18.742;2022-08-23T14:09:59;16.40;;;13.60;;
55190;SDS011;41070;50.360;18.742;2022-08-23T14:12:31;18.00;;;14.80;;
55190;SDS011;41070;50.360;18.742;2022-08-23T14:15:04;18.90;;;14.40;;
55190;SDS011;41070;50.360;18.742;2022-08-23T14:17:37;18.10;;;13.60;;
55190;SDS011;41070;50.360;18.742;2022-08-23T14:20:08;22.10;;;13.10;;
55190;SDS011;41070;50.360;18.742;2022-08-23T14:22:36;16.70;;;13.50;;
55190;SDS011;41070;50.360;18.742;2022-08-23T14:25:05;17.40;;;13.30;;
55190;SDS011;41070;50.360;18.742;2022-08-23T14:27:34;17.80;;;12.80;;
55190;SDS011;41070;50.360;18.742;2022-08-23T14:30:02;16.50;;;13.30;;
55190;SDS011;41070;50.360;18.742;2022-08-23T14:32:30;18.60;;;14.50;;
55190;SDS011;41070;50.360;18.742;2022-08-23T14:35:04;17.00;;;13.70;;
55190;SDS011;41070;50.360;18.742;2022-08-23T14:37:33;17.10;;;13.50;;
55190;SDS011;41070;50.360;18.742;2022-08-23T14:40:00;19.80;;;15.40;;
55190;SDS011;41070;50.360;18.742;2022-08-23T14:42:28;17.90;;;13.80;;
55190;SDS011;41070;50.360;18.742;2022-08-23T14:44:56;17.30;;;13.50;;
55190;SDS011;41070;50.360;18.742;2022-08-23T14:47:24;18.00;;;13.30;;
55190;SDS011;41070;50.360;18.742;2022-08-23T14:49:53;20.40;;;14.90;;
55190;SDS011;41070;50.360;18.742;2022-08-23T14:52:20;17.90;;;13.60;;
55190;SDS011;41070;50.360;18.742;2022-08-23T14:54:48;19.50;;;13.80;;
55190;SDS011;41070;50.360;18.742;2022-08-23T14:57:16;18.70;;;13.90;;
55190;SDS011;41070;50.360;18.742;2022-08-23T14:59:44;18.90;;;13.60;;
55190;SDS011;41070;50.360;18.742;2022-08-23T15:02:12;19.20;;;14.20;;
55190;SDS011;41070;50.360;18.742;2022-08-23T15:04:47;22.00;;;14.40;;
55190;SDS011;41070;50.360;18.742;2022-08-23T15:07:15;18.60;;;12.70;;
55190;SDS011;41070;50.360;18.742;2022-08-23T15:09:43;21.70;;;14.10;;
55190;SDS011;41070;50.360;18.742;2022-08-23T15:12:11;19.00;;;14.40;;
55190;SDS011;41070;50.360;18.742;2022-08-23T15:14:38;18.90;;;13.10;;
55190;SDS011;41070;50.360;18.742;2022-08-23T15:17:06;17.30;;;13.50;;
55190;SDS011;41070;50.360;18.742;2022-08-23T15:19:33;18.50;;;12.20;;
55190;SDS011;41070;50.360;18.742;2022-08-23T15:22:01;18.90;;;13.30;;
55190;SDS011;41070;50.360;18.742;2022-08-23T15:24:29;17.80;;;13.60;;
55190;SDS011;41070;50.360;18.742;2022-08-23T15:27:00;20.50;;;13.80;;
55190;SDS011;41070;50.360;18.742;2022-08-23T15:29:29;20.30;;;14.50;;
55190;SDS011;41070;50.360;18.742;2022-08-23T15:31:58;19.20;;;13.80;;
55190;SDS011;41070;50.360;18.742;2022-08-23T15:34:26;18.10;;;13.10;;
55190;SDS011;41070;50.360;18.742;2022-08-23T15:36:53;20.00;;;14.10;;
55190;SDS011;41070;50.360;18.742;2022-08-23T15:39:21;20.90;;;14.60;;
55190;SDS011;41070;50.360;18.742;2022-08-23T15:41:48;19.60;;;14.20;;
55190;SDS011;41070;50.360;18.742;2022-08-23T15:44:16;18.00;;;13.10;;
55190;SDS011;41070;50.360;18.742;2022-08-23T15:46:44;19.10;;;12.60;;
55190;SDS011;41070;50.360;18.742;2022-08-23T15:49:15;18.50;;;14.10;;
55190;SDS011;41070;50.360;18.742;2022-08-23T15:51:44;17.90;;;12.90;;
55190;SDS011;41070;50.360;18.742;2022-08-23T15:54:12;18.40;;;13.40;;
55190;SDS011;41070;50.360;18.742;2022-08-23T15:56:41;18.50;;;14.30;;
55190;SDS011;41070;50.360;18.742;2022-08-23T15:59:11;16.60;;;12.30;;
55190;SDS011;41070;50.360;18.742;2022-08-23T16:01:42;16.70;;;12.40;;
55190;SDS011;41070;50.360;18.742;2022-08-23T16:04:10;16.70;;;12.60;;
55190;SDS011;41070;50.360;18.742;2022-08-23T16:06:38;16.00;;;11.90;;
55190;SDS011;41070;50.360;18.742;2022-08-23T16:09:07;17.20;;;13.30;;
55190;SDS011;41070;50.360;18.742;2022-08-23T16:11:42;16.30;;;11.80;;
55190;SDS011;41070;50.360;18.742;2022-08-23T16:14:10;19.00;;;12.80;;
55190;SDS011;41070;50.360;18.742;2022-08-23T16:16:38;15.30;;;11.90;;
55190;SDS011;41070;50.360;18.742;2022-08-23T16:19:07;17.10;;;11.40;;
55190;SDS011;41070;50.360;18.742;2022-08-23T16:21:36;17.30;;;12.30;;
55190;SDS011;41070;50.360;18.742;2022-08-23T16:24:05;15.20;;;11.60;;
55190;SDS011;41070;50.360;18.742;2022-08-23T16:26:39;18.30;;;11.40;;
55190;SDS011;41070;50.360;18.742;2022-08-23T16:31:38;13.40;;;10.20;;
55190;SDS011;41070;50.360;18.742;2022-08-23T16:34:09;13.20;;;9.90;;